Слобода

Карта отелей и гостиниц, располагающихся рядом с аэропортом Слобода :

Слобода Вологодская область 60° 22' 43.2012" N, 36° 4' 59.16" E
Код аэродрома ИКАО
ZF2H
Код аэродрома RU
ЗФ2Х
Координаты
N60.37867° E036.08310°
Превышение над уровнем моря
193
Основная полоса
16/34
Курс магнитный
163,9/343,9
Длина основной ВПП
600
Ширина основной ВПП
70
Покрытие основной ВПП
Нетвёрдое (грунт)
Освещение ВПП
Нет
Тип: 
Аэродром
Класс аэродрома: 
Принадлежность: 
ГА
Статус: 
Недействующий
Сайт: 
E-mail аэродрома: 
Страна: 
Россия
Регион: 
Вологодская область
Город: 
Дополнительная информация: 
Бывший аэродром МВЛ. В н. в. полностью зарос, к посадке не пригоден.

Найти трансфер

С помощью этой формы Вы можете найти трансфер из аэропорта Слобода в город, аэропорт или вокзал:

Погода в аэропортах:

Авиационная погода в Краснодаре

Регион: 
Погода METAR: 
URKK 221800Z 06003MPS 1800 R05R/P2000U SHSN SCT007 BKN025CB M01/M02 Q1014 R05R/650533 TEMPO 0500 +SHSN BKN002 BKN016CB RMK QFE758
Время наблюдения
2022-01-22T18:00:00Z
Температура C
-1.0
Точка росы
-2.0
Направление ветра
60
Скорость ветра (узлы)
6
Метео видимость
1.12
Облачность
SCT
BKN
Нижняя граница облачности (футы)
700
2500
Явления погоды
SHSN
Условия полета
IFR
Аэропорт подробнее: 
SCT – разбросанная отдельная облачность; BKN – значительная (рассеянная, разорванная) облачность;
SHSN - ливневой снег;

Авиационная погода в Угольном

Регион: 
Погода METAR: 
UHMA 221800Z 36003MPS 4100 -SN FEW023 SCT042 M21/M23 Q0990 R01/////// NOSIG RMK TDZ R01/36003G04MPS END R01/33001MPS QFE738/0985
Время наблюдения
2022-01-22T18:00:00Z
Температура C
-21.0
Точка росы
-23.0
Направление ветра
360
Скорость ветра (узлы)
6
Метео видимость
2.55
Облачность
FEW
SCT
Нижняя граница облачности (футы)
2300
4200
Явления погоды
-SN
Условия полета
IFR
Аэропорт подробнее: 
FEW – незначительная облачность; SCT – разбросанная отдельная облачность;
-SN – слабый снег;

Авиационная погода в Самсуне

Регион: 
Погода METAR: 
LTFH 221750Z 29012KT 3200 -RASN SCT005 BKN026 OVC080 02/01 Q1010 NOSIG
Время наблюдения
2022-01-22T17:50:00Z
Температура C
2.0
Точка росы
1.0
Направление ветра
290
Скорость ветра (узлы)
12
Метео видимость
1.99
Облачность
SCT
BKN
OVC
Нижняя граница облачности (футы)
500
2600
8000
Явления погоды
-RA -SN
Условия полета
IFR
SCT – разбросанная отдельная облачность; BKN – значительная (рассеянная, разорванная) облачность; OVC – сплошная облачность;
-RA - слабый дождь; -SN – слабый снег;

Авиационная погода в Казани

Регион: 
Погода METAR: 
UWKD 221800Z 15007MPS 1900 R11/P2000N SN BLSN OVC021 M06/M08 Q1020 R11/451040 NOSIG RMK QFE755/1007
Время наблюдения
2022-01-22T18:00:00Z
Температура C
-6.0
Точка росы
-8.0
Направление ветра
150
Скорость ветра (узлы)
14
Метео видимость
1.18
Облачность
OVC
Нижняя граница облачности (футы)
2100
Явления погоды
SN BLSN
Условия полета
IFR
Аэропорт подробнее: 
OVC – сплошная облачность;
SN – снег, BLSN – метель низовая или общая;